Latest Weather Observations for Campania

IDT60801

Issued at 3:31 pm EDT Sunday 21 December 2014 (issued every 30 minutes, with the page automatically refreshed every 10 minutes)

About weather observations | Map of weather stations | Latest weather observations for TAS | Other Formats
Station Details ID: 094212 Name: CAMPANIA (KINCORA) Lat: -42.69 Lon: 147.43 Height: 45.0 m
Data from the previous 72 hours. | See also: Recent months at Campania
Date/Time
EDT
Temp
°C
App
Temp
°C
Dew
Point
Rel
Hum
%
Delta-T
°C
Wind Press
QNH
hPa
Press
MSL
hPa
Rain
since 9 am
mm
Dir
 
Spd
km/h
Gust
km/h
Spd
kts
Gust
kts
21/03:30pm 26.2 23.1 10.4 37 8.8 SE 17 22 9 12 - - 0.0
21/03:00pm 25.9 22.9 9.3 35 9.1 SSW 15 20 8 11 - - 0.0
21/02:30pm 26.7 23.7 9.1 33 9.7 SW 15 20 8 11 - - 0.0
21/02:00pm 26.2 21.5 9.1 34 9.4 WSW 24 33 13 18 - - 0.0
21/01:30pm 25.7 22.4 8.2 33 9.4 WSW 15 24 8 13 - - 0.0
21/01:00pm 25.3 21.4 7.0 31 9.6 WSW 17 26 9 14 - - 0.0
21/12:30pm 25.1 20.6 6.3 30 9.7 NNW 19 30 10 16 - - 0.0
21/12:00pm 24.5 20.8 6.3 31 9.4 WNW 15 24 8 13 - - 0.0
21/11:30am 22.9 20.6 9.0 41 7.5 W 11 20 6 11 - - 0.0
21/11:00am 21.6 19.4 9.2 45 6.6 NW 11 17 6 9 - - 0.0
21/10:30am 20.5 19.3 10.3 52 5.5 WNW 7 15 4 8 - - 0.0
21/10:00am 19.2 17.8 11.0 59 4.5 SSE 9 13 5 7 - - 0.0
21/09:30am 18.4 17.3 10.5 60 4.2 W 7 20 4 11 - - 0.0
21/09:00am 17.1 16.0 10.5 65 3.5 WSW 7 13 4 7 - - 0.2
21/08:30am 16.2 14.7 10.5 69 3.0 NW 9 19 5 10 - - 0.2
21/08:00am 15.2 15.2 9.8 70 2.8 CALM 0 0 0 0 - - 0.2
21/07:30am 13.8 13.7 9.5 75 2.2 CALM 0 0 0 0 - - 0.2
21/07:00am 13.1 11.9 9.4 78 1.9 NW 6 7 3 4 - - 0.2
21/06:30am 12.7 12.6 9.3 80 1.7 CALM 0 7 0 4 - - 0.2
21/06:00am 12.4 12.4 9.8 84 1.3 CALM 0 0 0 0 - - 0.2
21/05:30am 12.1 12.1 9.7 85 1.2 CALM 0 0 0 0 - - 0.2
21/05:00am 11.7 11.6 9.4 86 1.2 CALM 0 0 0 0 - - 0.2
21/04:30am 11.4 11.3 9.5 88 1.0 CALM 0 0 0 0 - - 0.2
21/04:00am 11.1 10.9 9.2 88 1.0 CALM 0 0 0 0 - - 0.2
21/03:30am 11.4 11.3 9.3 87 1.1 CALM 0 0 0 0 - - 0.2
21/03:00am 10.8 10.6 9.2 90 0.8 CALM 0 0 0 0 - - 0.2
21/02:30am 10.4 10.1 8.7 89 0.8 CALM 0 0 0 0 - - 0.2
21/02:00am 11.3 10.8 9.2 87 1.1 NW 2 6 1 3 - - 0.2
21/01:30am 12.1 10.2 8.9 81 1.6 SSW 9 9 5 5 - - 0.2
21/01:00am 12.6 11.1 9.2 80 1.7 S 7 9 4 5 - - 0.2
21/12:30am 12.6 12.5 9.4 81 1.6 CALM 0 0 0 0 - - 0.2
21/12:00am 12.6 12.5 9.6 82 1.5 CALM 0 0 0 0 - - 0.2
 
Date/Time
EDT
Temp
°C
App
Temp
°C
Dew
Point
Rel
Hum
%
Delta-T
°C
Wind Press
QNH
hPa
Press
MSL
hPa
Rain
since 9 am
mm
Dir
 
Spd
km/h
Gust
km/h
Spd
kts
Gust
kts
20/11:30pm 12.3 11.6 9.9 85 1.2 SSW 4 7 2 4 - - 0.2
20/11:00pm 10.9 9.0 9.2 89 0.8 SW 9 9 5 5 - - 0.2
20/10:30pm 11.5 10.2 9.1 85 1.2 SSW 6 7 3 4 - - 0.2
20/10:00pm 12.4 11.0 9.4 82 1.5 S 7 9 4 5 - - 0.2
20/09:30pm 12.5 11.1 9.5 82 1.5 SE 7 13 4 7 - - 0.2
20/09:00pm 12.9 10.4 9.7 81 1.6 ESE 13 20 7 11 - - 0.2
20/08:30pm 13.4 10.3 10.2 81 1.7 SSE 17 24 9 13 - - 0.2
20/08:00pm 14.5 11.0 10.3 76 2.2 SE 19 26 10 14 - - 0.2
20/07:30pm 15.5 11.8 10.3 71 2.7 SE 20 28 11 15 - - 0.2
20/07:00pm 16.0 12.1 10.7 71 2.8 SSE 22 32 12 17 - - 0.2
20/06:30pm 17.0 12.7 10.6 66 3.4 SSE 24 32 13 17 - - 0.2
20/06:00pm 17.1 13.6 10.9 67 3.3 SE 20 33 11 18 - - 0.2
20/05:30pm 18.1 14.2 10.7 62 4.0 ESE 22 33 12 18 - - 0.2
20/05:00pm 18.2 14.3 10.8 62 4.0 SE 22 35 12 19 - - 0.2
20/04:30pm 18.3 14.9 11.1 63 3.9 ESE 20 35 11 19 - - 0.2
20/04:00pm 21.4 16.3 6.1 37 7.7 W 22 33 12 18 - - 0.2
20/03:30pm 22.4 17.2 7.4 38 7.8 WSW 24 39 13 21 - - 0.2
20/03:00pm 21.7 17.1 6.4 37 7.8 WNW 20 32 11 17 - - 0.2
20/02:30pm 20.9 14.7 6.1 38 7.4 WSW 28 37 15 20 - - 0.2
20/02:00pm 21.3 15.8 7.5 41 7.1 WSW 26 44 14 24 - - 0.0
20/01:30pm 21.3 15.0 7.5 41 7.1 W 30 50 16 27 - - 0.0
20/01:28pm 21.6 15.3 7.4 40 7.3 W 30 48 16 26 - - 0.0
20/01:00pm 21.3 15.9 7.9 42 7.0 WSW 26 43 14 23 - - 0.0
20/12:46pm 20.6 14.5 6.5 40 7.1 W 28 50 15 27 - - 0.0
20/12:30pm 21.3 16.0 6.8 39 7.4 WNW 24 41 13 22 - - 0.0
20/12:00pm 20.6 17.0 8.3 45 6.4 W 17 28 9 15 - - 0.0
20/11:30am 19.2 14.3 8.5 50 5.6 W 24 37 13 20 - - 0.0
20/11:00am 18.8 16.7 9.6 55 4.9 NW 11 32 6 17 - - 0.0
20/10:30am 18.4 15.1 11.0 62 4.0 W 19 26 10 14 - - 0.0
20/10:00am 17.6 13.6 11.8 69 3.2 W 24 35 13 19 - - 0.0
20/09:30am 17.2 15.8 12.1 72 2.8 N 11 17 6 9 - - 0.0
20/09:00am 14.8 13.4 12.3 85 1.4 W 11 19 6 10 - - 0.0
20/08:30am 15.4 12.5 11.0 75 2.3 WSW 17 24 9 13 - - 0.0
20/08:00am 17.9 14.7 9.8 59 4.3 WNW 17 24 9 13 - - 0.0
20/07:30am 16.8 13.8 9.2 61 3.9 NW 15 22 8 12 - - 0.0
20/07:00am 16.2 14.3 8.9 62 3.8 NW 9 19 5 10 - - 0.0
20/06:30am 14.7 14.1 8.9 68 3.0 NW 2 7 1 4 - - 0.0
20/06:00am 13.1 11.5 8.2 72 2.4 WNW 6 7 3 4 - - 0.0
20/05:30am 13.7 11.1 7.9 68 2.9 NNW 11 15 6 8 - - 0.0
20/05:00am 13.4 10.0 7.6 68 2.9 NW 15 19 8 10 - - 0.0
20/04:30am 13.4 9.9 7.4 67 2.9 NNW 15 19 8 10 - - 0.0
20/04:00am 13.4 10.2 7.0 65 3.1 NNW 13 20 7 11 - - 0.0
20/03:30am 13.4 10.5 6.5 63 3.3 NNW 11 15 6 8 - - 0.0
20/03:00am 13.8 10.6 6.7 62 3.4 N 13 17 7 9 - - 0.0
20/02:30am 13.9 9.8 6.3 60 3.6 N 17 24 9 13 - - 0.0
20/02:00am 13.5 10.5 5.9 60 3.6 N 11 17 6 9 - - 0.0
20/01:30am 13.5 10.4 5.7 59 3.7 N 11 17 6 9 - - 0.0
20/01:00am 13.7 9.9 5.6 58 3.8 N 15 20 8 11 - - 0.0
20/12:30am 13.7 10.2 5.6 58 3.8 N 13 17 7 9 - - 0.0
20/12:00am 13.7 9.8 5.3 57 3.9 N 15 22 8 12 - - 0.0
 
Date/Time
EDT
Temp
°C
App
Temp
°C
Dew
Point
Rel
Hum
%
Delta-T
°C
Wind Press
QNH
hPa
Press
MSL
hPa
Rain
since 9 am
mm
Dir
 
Spd
km/h
Gust
km/h
Spd
kts
Gust
kts
19/11:30pm 13.9 9.2 5.0 55 4.2 N 19 20 10 11 - - 0.0
19/11:00pm 14.0 10.4 5.1 55 4.2 NW 13 20 7 11 - - 0.0
19/10:30pm 14.2 10.6 4.8 53 4.4 WNW 13 19 7 10 - - 0.0
19/10:00pm 14.5 9.5 4.5 51 4.6 NW 20 28 11 15 - - 0.0
19/09:30pm 15.0 10.5 4.1 48 5.0 WNW 17 24 9 13 - - 0.0
19/09:00pm 15.3 10.1 3.8 46 5.3 WNW 20 32 11 17 - - 0.0
19/08:30pm 15.3 11.2 4.1 47 5.2 W 15 20 8 11 - - 0.0
19/08:00pm 15.5 10.6 4.2 47 5.3 W 19 26 10 14 - - 0.0
19/07:30pm 15.5 9.3 4.5 48 5.1 W 26 39 14 21 - - 0.0
19/07:00pm 16.6 11.5 3.0 40 6.2 W 19 24 10 13 - - 0.0
19/06:30pm 17.2 12.1 2.8 38 6.6 W 19 26 10 14 - - 0.0
19/06:00pm 17.4 12.0 2.6 37 6.8 WSW 20 32 11 17 - - 0.0
19/05:30pm 18.7 12.2 2.5 34 7.5 WSW 26 35 14 19 - - 0.0
19/05:00pm 17.7 11.9 2.5 36 6.9 W 22 33 12 18 - - 0.0
19/04:30pm 19.1 13.2 2.0 32 7.8 WSW 22 30 12 16 - - 0.0
19/04:00pm 19.5 13.9 3.2 34 7.7 WSW 22 35 12 19 - - 0.0
19/03:30pm 18.8 13.5 3.0 35 7.4 W 20 32 11 17 - - 0.0
19/03:00pm 18.8 12.8 3.4 36 7.2 WSW 24 33 13 18 - - 0.0
19/02:30pm 18.1 13.3 2.4 35 7.2 WNW 17 32 9 17 - - 0.0
19/02:00pm 18.0 12.5 1.9 34 7.3 WSW 20 35 11 19 - - 0.0
19/01:30pm 18.2 12.6 3.3 37 6.9 W 22 39 12 21 - - 0.0
19/01:00pm 17.7 12.4 3.2 38 6.7 WSW 20 35 11 19 - - 0.0
19/12:30pm 17.2 13.2 3.1 39 6.5 W 13 26 7 14 - - 0.0
19/12:00pm 16.2 10.6 3.6 43 5.8 WSW 22 35 12 19 - - 0.0
19/11:30am 15.3 10.5 4.4 48 5.1 SW 19 33 10 18 - - 0.0
19/11:00am 15.3 10.3 4.4 48 5.1 WSW 20 28 11 15 - - 0.0
19/10:30am 15.8 11.5 5.1 49 5.1 WNW 17 26 9 14 - - 0.0
19/10:00am 15.0 10.2 4.4 49 4.9 WSW 19 32 10 17 - - 0.0
19/09:30am 15.6 10.8 4.9 49 5.1 W 19 26 10 14 - - 0.0
19/09:00am 14.7 10.7 4.7 51 4.7 WSW 15 20 8 11 - - 0.2
19/08:30am 13.9 9.6 5.3 56 4.0 W 17 32 9 17 - - 0.2
19/08:00am 13.1 10.2 6.5 64 3.2 WNW 11 15 6 8 - - 0.2
19/07:30am 11.2 7.8 5.7 69 2.6 W 13 19 7 10 - - 0.2
19/07:00am 10.8 7.3 5.6 70 2.4 WNW 13 19 7 10 - - 0.2
19/06:30am 11.1 7.7 6.0 71 2.4 WNW 13 19 7 10 - - 0.2
19/06:00am 7.4 5.0 5.2 86 1.0 NW 7 9 4 5 - - 0.2
19/05:30am 8.7 4.8 5.3 79 1.5 WNW 15 17 8 9 - - 0.2
19/05:00am 7.9 4.3 5.0 82 1.3 NW 13 15 7 8 - - 0.2
19/04:30am 9.9 6.0 5.3 73 2.1 W 15 19 8 10 - - 0.2
19/04:00am 10.3 6.0 5.1 70 2.4 WNW 17 20 9 11 - - 0.2
19/03:30am 10.5 6.2 5.1 69 2.5 W 17 26 9 14 - - 0.2
19/03:00am 10.5 5.3 5.3 70 2.4 W 22 30 12 16 - - 0.2
19/02:30am 10.8 7.6 5.1 68 2.6 W 11 20 6 11 - - 0.2
19/02:00am 11.3 7.0 5.2 66 2.8 NW 17 30 9 16 - - 0.2
19/01:30am 11.6 7.2 4.8 63 3.1 W 17 33 9 18 - - 0.2
19/01:00am 11.7 6.9 4.9 63 3.1 W 19 30 10 16 - - 0.2
19/12:30am 11.7 7.4 5.1 64 3.0 W 17 24 9 13 - - 0.2
19/12:00am 11.5 7.6 5.2 65 2.9 W 15 20 8 11 - - 0.2
 
Date/Time
EDT
Temp
°C
App
Temp
°C
Dew
Point
Rel
Hum
%
Delta-T
°C
Wind Press
QNH
hPa
Press
MSL
hPa
Rain
since 9 am
mm
Dir
 
Spd
km/h
Gust
km/h
Spd
kts
Gust
kts
18/11:30pm 10.8 7.9 4.9 67 2.7 N 9 13 5 7 - - 0.2
18/11:00pm 12.9 8.5 4.8 58 3.7 W 17 35 9 19 - - 0.2
18/10:30pm 12.2 8.2 5.1 62 3.3 WSW 15 20 8 11 - - 0.2
18/10:00pm 13.4 6.5 4.6 55 4.1 WSW 30 41 16 22 - - 0.2
18/09:30pm 13.4 7.2 6.0 61 3.5 WSW 28 35 15 19 - - 0.2
18/09:00pm 14.1 9.4 6.2 59 3.8 WSW 20 37 11 20 - - 0.2
18/08:30pm 14.8 9.5 6.6 58 4.0 WSW 24 39 13 21 - - 0.2
18/08:00pm 15.5 12.0 7.3 58 4.1 W 15 26 8 14 - - 0.2
18/07:30pm 16.9 13.6 8.1 56 4.5 W 15 26 8 14 - - 0.2
18/07:00pm 16.4 11.3 7.6 56 4.4 WNW 24 35 13 19 - - 0.2
18/06:30pm 16.5 11.3 7.4 55 4.6 WNW 24 35 13 19 - - 0.2
18/06:00pm 16.7 12.0 7.9 56 4.5 WNW 22 33 12 18 - - 0.0
18/05:30pm 15.4 11.0 8.9 65 3.3 NNW 22 30 12 16 - - 0.0
18/05:00pm 14.1 10.9 10.1 77 2.1 N 17 20 9 11 - - 0.0
18/04:30pm 14.5 10.3 9.7 73 2.5 WNW 22 35 12 19 - - 0.0
18/04:00pm 14.0 8.5 10.6 80 1.8 WNW 30 50 16 27 - - 0.0
18/03:42pm 16.7 10.4 9.6 63 3.7 WNW 33 52 18 28 - - 0.0

Other Formats:

Comma delimited format used in spreadsheet applications
http://www.bom.gov.au/fwo/IDT60801/IDT60801.95972.axf

JavaScript Object Notation format (JSON) in row-major order
http://www.bom.gov.au/fwo/IDT60801/IDT60801.95972.json